sensor_id;sensor_type;location;lat;lon;timestamp;pressure;altitude;pressure_sealevel;temperature;humidity
56414;BME280;42318;48.452;19.526;2022-12-16T00:00:32;97500.50;;;19.95;52.46
56414;BME280;42318;48.452;19.526;2022-12-16T00:08:23;97481.19;;;19.96;52.75
56414;BME280;42318;48.452;19.526;2022-12-16T00:15:54;97481.47;;;19.95;52.60
56414;BME280;42318;48.452;19.526;2022-12-16T00:23:26;97476.84;;;19.95;52.49
56414;BME280;42318;48.452;19.526;2022-12-16T00:30:57;97486.63;;;19.96;52.59
56414;BME280;42318;48.452;19.526;2022-12-16T00:38:28;97476.56;;;19.97;52.41
56414;BME280;42318;48.452;19.526;2022-12-16T00:45:59;97473.56;;;19.98;52.26
56414;BME280;42318;48.452;19.526;2022-12-16T00:53:30;97484.16;;;20.00;52.38
56414;BME280;42318;48.452;19.526;2022-12-16T01:01:01;97475.47;;;19.98;52.33
56414;BME280;42318;48.452;19.526;2022-12-16T01:08:32;97489.06;;;19.98;52.14
56414;BME280;42318;48.452;19.526;2022-12-16T01:16:03;97486.88;;;20.00;52.24
56414;BME280;42318;48.452;19.526;2022-12-16T01:23:34;97489.59;;;20.00;52.17
56414;BME280;42318;48.452;19.526;2022-12-16T01:31:05;97486.88;;;20.00;52.16
56414;BME280;42318;48.452;19.526;2022-12-16T01:38:36;97467.31;;;19.98;52.00
56414;BME280;42318;48.452;19.526;2022-12-16T01:53:44;97457.53;;;19.97;51.91
56414;BME280;42318;48.452;19.526;2022-12-16T02:01:18;97437.97;;;19.95;52.09
56414;BME280;42318;48.452;19.526;2022-12-16T02:08:54;97434.69;;;19.98;51.74
56414;BME280;42318;48.452;19.526;2022-12-16T02:16:31;97421.09;;;19.98;51.95
56414;BME280;42318;48.452;19.526;2022-12-16T02:39:47;97381.13;;;19.98;51.98
56414;BME280;42318;48.452;19.526;2022-12-16T02:47:20;97363.19;;;19.97;51.86
56414;BME280;42318;48.452;19.526;2022-12-16T02:54:54;97329.19;;;20.00;51.84
56414;BME280;42318;48.452;19.526;2022-12-16T03:02:38;97314.78;;;19.99;51.69
56414;BME280;42318;48.452;19.526;2022-12-16T03:10:15;97296.56;;;20.00;51.79
56414;BME280;42318;48.452;19.526;2022-12-16T03:17:47;97281.06;;;20.00;51.52
56414;BME280;42318;48.452;19.526;2022-12-16T03:25:20;97250.34;;;20.00;51.85
56414;BME280;42318;48.452;19.526;2022-12-16T03:33:02;97225.88;;;20.00;51.77
56414;BME280;42318;48.452;19.526;2022-12-16T03:40:34;97178.56;;;20.01;51.71
56414;BME280;42318;48.452;19.526;2022-12-16T03:48:09;97189.44;;;20.01;51.39
56414;BME280;42318;48.452;19.526;2022-12-16T03:55:41;97175.56;;;20.02;51.88
56414;BME280;42318;48.452;19.526;2022-12-16T04:03:12;97179.38;;;20.01;51.51
56414;BME280;42318;48.452;19.526;2022-12-16T04:10:42;97169.31;;;20.02;51.74
56414;BME280;42318;48.452;19.526;2022-12-16T04:18:32;97145.13;;;20.00;51.54
56414;BME280;42318;48.452;19.526;2022-12-16T04:26:21;97159.25;;;20.02;51.59
56414;BME280;42318;48.452;19.526;2022-12-16T04:33:52;97170.41;;;20.01;51.42
56414;BME280;42318;48.452;19.526;2022-12-16T04:41:41;97133.66;;;20.03;51.43
56414;BME280;42318;48.452;19.526;2022-12-16T04:49:31;97122.78;;;20.03;51.55
56414;BME280;42318;48.452;19.526;2022-12-16T04:57:21;97104.88;;;20.02;51.22
56414;BME280;42318;48.452;19.526;2022-12-16T05:05:10;97102.94;;;20.03;51.48
56414;BME280;42318;48.452;19.526;2022-12-16T05:13:00;97099.44;;;20.02;51.29
56414;BME280;42318;48.452;19.526;2022-12-16T05:20:49;97083.91;;;20.03;51.33
56414;BME280;42318;48.452;19.526;2022-12-16T05:28:39;97101.84;;;20.04;51.23
56414;BME280;42318;48.452;19.526;2022-12-16T05:36:28;97122.78;;;20.03;51.41
56414;BME280;42318;48.452;19.526;2022-12-16T05:44:17;97100.22;;;20.03;51.37
56414;BME280;42318;48.452;19.526;2022-12-16T05:52:07;97100.22;;;20.03;51.50
56414;BME280;42318;48.452;19.526;2022-12-16T05:59:56;97102.94;;;20.03;51.17
56414;BME280;42318;48.452;19.526;2022-12-16T06:07:50;97105.66;;;20.03;51.24
56414;BME280;42318;48.452;19.526;2022-12-16T06:15:40;97093.19;;;20.02;51.20
56414;BME280;42318;48.452;19.526;2022-12-16T06:23:31;97098.63;;;20.02;51.29
56414;BME280;42318;48.452;19.526;2022-12-16T06:31:20;97093.19;;;20.02;51.35
56414;BME280;42318;48.452;19.526;2022-12-16T06:39:10;97094.28;;;20.01;51.18
56414;BME280;42318;48.452;19.526;2022-12-16T06:46:59;97083.91;;;20.03;51.12
56414;BME280;42318;48.452;19.526;2022-12-16T06:54:48;97078.47;;;20.03;51.33
56414;BME280;42318;48.452;19.526;2022-12-16T07:02:38;97077.69;;;20.02;51.31
56414;BME280;42318;48.452;19.526;2022-12-16T07:10:27;97082.81;;;20.04;51.22
56414;BME280;42318;48.452;19.526;2022-12-16T07:18:17;97071.94;;;20.04;51.27
56414;BME280;42318;48.452;19.526;2022-12-16T07:26:06;97069.22;;;20.04;51.45
56414;BME280;42318;48.452;19.526;2022-12-16T07:33:55;97070.03;;;20.04;51.31
56414;BME280;42318;48.452;19.526;2022-12-16T07:41:45;97077.91;;;20.06;51.29
56414;BME280;42318;48.452;19.526;2022-12-16T07:49:34;97086.88;;;20.06;51.22
56414;BME280;42318;48.452;19.526;2022-12-16T07:57:23;97090.97;;;20.04;51.22
56414;BME280;42318;48.452;19.526;2022-12-16T08:05:13;97079.28;;;20.03;51.25
56414;BME280;42318;48.452;19.526;2022-12-16T08:13:03;97083.91;;;20.03;51.37
56414;BME280;42318;48.452;19.526;2022-12-16T08:20:53;97095.84;;;20.07;51.51
56414;BME280;42318;48.452;19.526;2022-12-16T08:28:43;97087.16;;;20.05;52.54
56414;BME280;42318;48.452;19.526;2022-12-16T08:36:32;97108.91;;;20.05;52.66
56414;BME280;42318;48.452;19.526;2022-12-16T08:44:22;97112.16;;;20.07;52.43
56414;BME280;42318;48.452;19.526;2022-12-16T08:52:11;97105.91;;;20.06;52.69
56414;BME280;42318;48.452;19.526;2022-12-16T09:00:01;97110.25;;;20.07;52.57
56414;BME280;42318;48.452;19.526;2022-12-16T09:07:50;97125.47;;;20.08;52.96
56414;BME280;42318;48.452;19.526;2022-12-16T09:15:40;97129.28;;;20.07;52.93
56414;BME280;42318;48.452;19.526;2022-12-16T09:23:29;97102.09;;;20.07;53.25
56414;BME280;42318;48.452;19.526;2022-12-16T09:31:18;97121.69;;;20.04;53.83
56414;BME280;42318;48.452;19.526;2022-12-16T09:39:08;97105.66;;;20.03;53.79
56414;BME280;42318;48.452;19.526;2022-12-16T09:47:14;97111.97;;;19.98;54.34
56414;BME280;42318;48.452;19.526;2022-12-16T09:55:23;97118.75;;;20.01;54.17
56414;BME280;42318;48.452;19.526;2022-12-16T10:03:20;97121.75;;;19.99;53.75
56414;BME280;42318;48.452;19.526;2022-12-16T10:11:20;97128.56;;;19.97;53.91
56414;BME280;42318;48.452;19.526;2022-12-16T10:27:14;97114.19;;;19.91;53.44
56414;BME280;42318;48.452;19.526;2022-12-16T10:35:22;97127.22;;;19.94;53.69
56414;BME280;42318;48.452;19.526;2022-12-16T10:43:43;97134.56;;;19.94;53.81
56414;BME280;42318;48.452;19.526;2022-12-16T10:51:32;97124.25;;;19.91;53.57
56414;BME280;42318;48.452;19.526;2022-12-16T10:59:23;97132.41;;;19.91;53.78
56414;BME280;42318;48.452;19.526;2022-12-16T11:15:28;97132.72;;;19.89;53.69
56414;BME280;42318;48.452;19.526;2022-12-16T11:23:23;97139.47;;;19.92;53.23
56414;BME280;42318;48.452;19.526;2022-12-16T11:31:14;97139.19;;;19.93;53.94
56414;BME280;42318;48.452;19.526;2022-12-16T11:39:06;97135.63;;;19.98;54.38
56414;BME280;42318;48.452;19.526;2022-12-16T11:46:56;97131.81;;;19.99;55.01
56414;BME280;42318;48.452;19.526;2022-12-16T11:55:27;97148.66;;;20.01;55.69
56414;BME280;42318;48.452;19.526;2022-12-16T12:03:21;97145.41;;;19.99;55.48
56414;BME280;42318;48.452;19.526;2022-12-16T12:11:19;97154.38;;;19.99;55.51
56414;BME280;42318;48.452;19.526;2022-12-16T12:19:18;97158.19;;;19.98;55.73
56414;BME280;42318;48.452;19.526;2022-12-16T12:27:15;97162.00;;;19.97;55.78
56414;BME280;42318;48.452;19.526;2022-12-16T12:59:44;97176.44;;;19.93;55.03
56414;BME280;42318;48.452;19.526;2022-12-16T13:07:35;97182.97;;;19.92;55.32
56414;BME280;42318;48.452;19.526;2022-12-16T13:15:37;97199.28;;;19.92;54.68
56414;BME280;42318;48.452;19.526;2022-12-16T13:23:27;97231.94;;;19.87;55.04
56414;BME280;42318;48.452;19.526;2022-12-16T13:31:18;97238.19;;;19.87;55.16
56414;BME280;42318;48.452;19.526;2022-12-16T13:39:23;97238.47;;;19.86;54.44
56414;BME280;42318;48.452;19.526;2022-12-16T13:47:31;97253.16;;;19.85;54.53
56414;BME280;42318;48.452;19.526;2022-12-16T14:03:20;97271.66;;;19.83;54.16
56414;BME280;42318;48.452;19.526;2022-12-16T14:11:18;97271.94;;;19.81;54.10
56414;BME280;42318;48.452;19.526;2022-12-16T14:19:19;97257.03;;;19.79;54.39
56414;BME280;42318;48.452;19.526;2022-12-16T14:27:16;97272.28;;;19.74;54.19
56414;BME280;42318;48.452;19.526;2022-12-16T14:35:13;97273.91;;;19.75;54.33
56414;BME280;42318;48.452;19.526;2022-12-16T14:43:10;97263.03;;;19.75;54.25
56414;BME280;42318;48.452;19.526;2022-12-16T14:51:22;97272.28;;;19.74;54.26
56414;BME280;42318;48.452;19.526;2022-12-16T14:59:14;97283.16;;;19.74;53.95
56414;BME280;42318;48.452;19.526;2022-12-16T15:07:05;97297.84;;;19.73;53.92
56414;BME280;42318;48.452;19.526;2022-12-16T15:14:57;97326.38;;;19.71;53.89
56414;BME280;42318;48.452;19.526;2022-12-16T15:22:47;97349.47;;;19.73;53.71
56414;BME280;42318;48.452;19.526;2022-12-16T15:38:32;97351.66;;;19.71;53.83
56414;BME280;42318;48.452;19.526;2022-12-16T15:46:26;97365.78;;;19.73;53.90
56414;BME280;42318;48.452;19.526;2022-12-16T15:54:21;97396.75;;;19.72;53.59
56414;BME280;42318;48.452;19.526;2022-12-16T16:02:22;97416.59;;;19.73;53.71
56414;BME280;42318;48.452;19.526;2022-12-16T16:10:14;97411.44;;;19.71;53.74
56414;BME280;42318;48.452;19.526;2022-12-16T16:18:05;97404.91;;;19.72;53.84
56414;BME280;42318;48.452;19.526;2022-12-16T16:25:57;97392.69;;;19.70;53.42
56414;BME280;42318;48.452;19.526;2022-12-16T16:33:46;97410.63;;;19.71;53.41
56414;BME280;42318;48.452;19.526;2022-12-16T16:41:36;97414.72;;;19.68;53.40
56414;BME280;42318;48.452;19.526;2022-12-16T16:49:37;97397.31;;;19.69;53.34
56414;BME280;42318;48.452;19.526;2022-12-16T16:57:31;97410.91;;;19.69;53.20
56414;BME280;42318;48.452;19.526;2022-12-16T17:05:22;97403.84;;;19.68;53.59
56414;BME280;42318;48.452;19.526;2022-12-16T17:13:11;97390.81;;;19.65;53.35
56414;BME280;42318;48.452;19.526;2022-12-16T17:21:01;97381.56;;;19.66;53.44
56414;BME280;42318;48.452;19.526;2022-12-16T17:28:50;97389.72;;;19.66;53.15
56414;BME280;42318;48.452;19.526;2022-12-16T17:36:39;97392.16;;;19.68;53.40
56414;BME280;42318;48.452;19.526;2022-12-16T17:44:29;97408.75;;;19.66;53.16
56414;BME280;42318;48.452;19.526;2022-12-16T17:52:18;97415.31;;;19.60;53.20
56414;BME280;42318;48.452;19.526;2022-12-16T18:00:08;97430.78;;;19.65;53.35
56414;BME280;42318;48.452;19.526;2022-12-16T18:07:58;97415.28;;;19.65;53.67
56414;BME280;42318;48.452;19.526;2022-12-16T18:15:51;97441.09;;;19.68;55.00
56414;BME280;42318;48.452;19.526;2022-12-16T18:23:40;97458.47;;;19.72;55.67
56414;BME280;42318;48.452;19.526;2022-12-16T18:31:30;97476.13;;;19.74;56.42
56414;BME280;42318;48.452;19.526;2022-12-16T18:39:19;97478.56;;;19.76;56.70
56414;BME280;42318;48.452;19.526;2022-12-16T18:47:09;97458.44;;;19.77;56.58
56414;BME280;42318;48.452;19.526;2022-12-16T18:54:58;97454.06;;;19.81;55.98
56414;BME280;42318;48.452;19.526;2022-12-16T19:02:49;97451.88;;;19.83;56.17
56414;BME280;42318;48.452;19.526;2022-12-16T19:10:39;97466.81;;;19.86;56.12
56414;BME280;42318;48.452;19.526;2022-12-16T19:18:28;97470.34;;;19.86;55.79
56414;BME280;42318;48.452;19.526;2022-12-16T19:26:18;97476.88;;;19.85;55.81
56414;BME280;42318;48.452;19.526;2022-12-16T19:34:07;97485.84;;;19.86;55.77
56414;BME280;42318;48.452;19.526;2022-12-16T19:41:56;97488.56;;;19.86;55.02
56414;BME280;42318;48.452;19.526;2022-12-16T19:49:46;97485.31;;;19.84;55.21
56414;BME280;42318;48.452;19.526;2022-12-16T19:57:36;97503.25;;;19.85;54.80
56414;BME280;42318;48.452;19.526;2022-12-16T20:05:25;97529.34;;;19.81;54.58
56414;BME280;42318;48.452;19.526;2022-12-16T20:13:14;97543.50;;;19.77;54.38
56414;BME280;42318;48.452;19.526;2022-12-16T20:21:04;97539.44;;;19.75;54.50
56414;BME280;42318;48.452;19.526;2022-12-16T20:28:53;97537.00;;;19.73;54.96
56414;BME280;42318;48.452;19.526;2022-12-16T20:36:43;97526.94;;;19.74;55.39
56414;BME280;42318;48.452;19.526;2022-12-16T20:44:32;97534.28;;;19.73;55.18
56414;BME280;42318;48.452;19.526;2022-12-16T20:52:21;97532.94;;;19.71;55.01
56414;BME280;42318;48.452;19.526;2022-12-16T21:00:12;97536.47;;;19.71;55.31
56414;BME280;42318;48.452;19.526;2022-12-16T21:08:01;97531.03;;;19.71;55.21
56414;BME280;42318;48.452;19.526;2022-12-16T21:15:51;97536.47;;;19.71;55.21
56414;BME280;42318;48.452;19.526;2022-12-16T21:23:40;97553.84;;;19.70;55.50
56414;BME280;42318;48.452;19.526;2022-12-16T21:31:30;97568.53;;;19.69;55.09
56414;BME280;42318;48.452;19.526;2022-12-16T21:39:19;97568.53;;;19.69;55.25
56414;BME280;42318;48.452;19.526;2022-12-16T21:47:08;97576.69;;;19.69;54.82
56414;BME280;42318;48.452;19.526;2022-12-16T21:54:58;97571.53;;;19.68;54.83
56414;BME280;42318;48.452;19.526;2022-12-16T22:02:47;97576.69;;;19.69;54.87
56414;BME280;42318;48.452;19.526;2022-12-16T22:10:36;97565.81;;;19.69;54.52
56414;BME280;42318;48.452;19.526;2022-12-16T22:18:26;97576.97;;;19.68;54.68
56414;BME280;42318;48.452;19.526;2022-12-16T22:26:15;97577.78;;;19.68;54.66
56414;BME280;42318;48.452;19.526;2022-12-16T22:34:05;97571.53;;;19.68;54.38
56414;BME280;42318;48.452;19.526;2022-12-16T22:41:54;97572.63;;;19.67;54.84
56414;BME280;42318;48.452;19.526;2022-12-16T22:49:43;97571.53;;;19.68;54.57
56414;BME280;42318;48.452;19.526;2022-12-16T22:57:33;97563.66;;;19.66;54.35
56414;BME280;42318;48.452;19.526;2022-12-16T23:05:22;97557.69;;;19.64;54.40
56414;BME280;42318;48.452;19.526;2022-12-16T23:13:12;97555.78;;;19.65;54.38
56414;BME280;42318;48.452;19.526;2022-12-16T23:21:02;97583.75;;;19.65;54.15
56414;BME280;42318;48.452;19.526;2022-12-16T23:28:52;97590.00;;;19.66;54.16
56414;BME280;42318;48.452;19.526;2022-12-16T23:36:53;97577.50;;;19.65;54.03
56414;BME280;42318;48.452;19.526;2022-12-16T23:44:42;97591.91;;;19.65;53.96
56414;BME280;42318;48.452;19.526;2022-12-16T23:52:31;97586.75;;;19.64;53.89
